Fuel Prices

100LL: $3.98 (self-service)
100LL: $4.63 (full-service)
Jet-A: $3.36 (full-service)

Updated: August 25, 2016

Pilot Training

We offer pilot training from the basic private pilot course through ATP. We also provide aircraft rentals to qualified pilots looking for a place to fly.

Visit our school

Reservations

Are you planning a stop in Merritt Island? Need a tie-down or hangar spot? Let us know ahead of time and we'll be awaiting your arrival.

Plan Your Overnight

Located at the Merritt Island Airport (KCOI), Space Coast Aviation is the premier FBO for all of your needs. We’re the closest FBO to Cocoa Beach, Kennedy Space Center and Port Canaveral.

Swing by and enjoy our competitive fuel prices, refreshments, on-site maintenance, car rental services and much more.

Airport Information

Identifier: KCOI
Non-Towered
Runway: 11 / 29
3601 X 75 ft
Surface: Asphalt

CTAF/UNICOM: 122.975
AWOS-3: 119.025
ORL APP: 132.65

Area Weather

Patrick AFB (KCOF) METAR:

KCOF 280058Z AUTO 07006KT 10SM CLR 29/25 A2996 RMK AO2 DZB2358E03 SLP150 P0000 T02850254

Titusville (KTIX) METAR:

KTIX 280050Z 12005KT 7SM SCT020 BKN050 27/26 A2998 RMK LAST

Melbourne (KMLB) METAR:

KMLB 280053Z 08006KT 10SM CLR 28/26 A2996 RMK AO2 SLP145 T02830261

Hours of Operation

Mon: 7:00am - 8:00pm EST
Tue: 7:00am - 8:00pm EST
Wed: 7:00am - 8:00pm EST
Thu: 7:00am - 8:00pm EST
Fri: 7:00am - 8:00pm EST
Sat: 7:00am - 8:00pm EST
Sun: 7:00am - 8:00pm EST

Contact Us

Merritt Island Airport
900 Airport Road
Merritt Island, FL 32952

P: +1 (321) 453-2222